Time;durP1;ratioP1;P1;durP2;ratioP2;P2;SDS_P1;SDS_P2;PMS_P1;PMS_P2;Temp;Humidity;BMP_temperature;BMP_pressure;BME280_temperature;BME280_humidity;BME280_pressure;Samples;Min_cycle;Max_cycle;Signal;HPM_P1;HPM_P2
2021/01/16 00:00:22;;;;;;;37.87;16.33;;;-3.90;99.90;;;;;;4993458;28;20541;-55
2021/01/16 00:02:50;;;;;;;34.93;16.57;;;-4.00;99.90;;;;;;4993508;28;20450;-55
2021/01/16 00:05:18;;;;;;;38.40;15.80;;;-4.00;99.90;;;;;;4993340;28;20482;-56
2021/01/16 00:07:46;;;;;;;42.60;17.17;;;-3.90;99.90;;;;;;4993615;28;20462;-55
2021/01/16 00:10:15;;;;;;;37.17;16.10;;;-3.80;99.90;;;;;;4993428;28;20513;-56
2021/01/16 00:12:42;;;;;;;36.27;15.47;;;-3.80;99.90;;;;;;4993067;28;20450;-56
2021/01/16 00:15:10;;;;;;;45.63;17.53;;;-3.90;99.90;;;;;;4993451;28;20529;-56
2021/01/16 00:17:36;;;;;;;35.70;14.90;;;-3.90;99.90;;;;;;4993420;28;20462;-56
2021/01/16 00:20:05;;;;;;;37.23;14.67;;;-3.90;99.90;;;;;;4993255;28;20947;-55
2021/01/16 00:22:32;;;;;;;35.53;15.40;;;-3.90;99.90;;;;;;4992533;28;20959;-55
2021/01/16 00:24:59;;;;;;;33.70;14.30;;;-4.20;99.90;;;;;;4993132;28;20478;-55
2021/01/16 00:27:26;;;;;;;32.70;13.00;;;-4.30;99.90;;;;;;4993232;28;20863;-56
2021/01/16 00:29:53;;;;;;;38.63;15.30;;;-4.20;99.90;;;;;;4985813;28;20446;-55
2021/01/16 00:32:20;;;;;;;33.60;14.90;;;-4.10;99.90;;;;;;4993059;28;20509;-55
2021/01/16 00:34:46;;;;;;;32.90;14.40;;;-4.10;99.90;;;;;;4992285;28;20504;-56
2021/01/16 00:37:14;;;;;;;35.07;14.70;;;-4.10;99.90;;;;;;4992843;28;20869;-55
2021/01/16 00:39:40;;;;;;;35.73;13.30;;;-4.10;99.90;;;;;;4992849;28;20446;-56
2021/01/16 00:42:07;;;;;;;38.20;14.70;;;-4.20;99.90;;;;;;4992460;28;20454;-55
2021/01/16 00:44:33;;;;;;;39.13;14.13;;;-4.30;99.90;;;;;;4992529;28;20551;-55
2021/01/16 00:47:00;;;;;;;34.23;14.07;;;-4.30;99.90;;;;;;4992680;28;20951;-56
2021/01/16 00:49:26;;;;;;;40.33;15.10;;;-4.30;99.90;;;;;;4992138;28;20478;-56
2021/01/16 00:51:53;;;;;;;38.43;14.87;;;-4.30;99.90;;;;;;4992295;28;20450;-56
2021/01/16 00:54:20;;;;;;;34.67;15.07;;;-4.40;99.90;;;;;;5000759;28;20479;-55
2021/01/16 00:56:47;;;;;;;40.07;15.00;;;-4.40;99.90;;;;;;4998816;28;20457;-56
2021/01/16 00:59:13;;;;;;;37.67;15.97;;;-4.40;99.90;;;;;;4992172;28;20493;-55
2021/01/16 01:01:39;;;;;;;37.93;15.00;;;-4.40;99.90;;;;;;4992454;28;20454;-56
2021/01/16 01:04:09;;;;;;;42.23;16.47;;;-4.40;99.90;;;;;;4992459;28;20450;-55
2021/01/16 01:06:36;;;;;;;39.67;16.60;;;-4.40;99.90;;;;;;4992798;28;20458;-56
2021/01/16 01:09:07;;;;;;;43.10;16.67;;;-4.40;99.90;;;;;;4992236;28;20857;-56
2021/01/16 01:11:34;;;;;;;38.67;15.40;;;-4.40;99.90;;;;;;4992973;28;20501;-55
2021/01/16 01:14:01;;;;;;;40.27;16.60;;;-4.30;99.90;;;;;;4992144;28;20451;-55
2021/01/16 01:16:27;;;;;;;35.57;15.70;;;-4.30;99.90;;;;;;4992009;28;20897;-56
2021/01/16 01:18:54;;;;;;;35.20;15.10;;;-4.30;99.90;;;;;;4991624;28;20998;-55
2021/01/16 01:21:21;;;;;;;34.03;15.13;;;-4.30;99.90;;;;;;4992115;28;20454;-55
2021/01/16 01:23:48;;;;;;;35.37;14.83;;;-4.20;99.90;;;;;;4992544;28;20541;-56
2021/01/16 01:26:14;;;;;;;42.50;16.57;;;-4.30;99.90;;;;;;4992291;28;21006;-56
2021/01/16 01:28:42;;;;;;;41.07;16.73;;;-4.20;99.90;;;;;;4991730;28;20485;-55
2021/01/16 01:31:08;;;;;;;32.77;14.67;;;-4.30;99.90;;;;;;4992160;28;20839;-56
2021/01/16 01:33:35;;;;;;;36.63;14.03;;;-4.30;99.90;;;;;;4992145;28;20454;-55
2021/01/16 01:36:01;;;;;;;35.43;14.83;;;-4.30;99.90;;;;;;4991848;28;20541;-56
2021/01/16 01:38:28;;;;;;;41.10;16.33;;;-4.20;99.90;;;;;;4992402;28;20453;-55
2021/01/16 01:40:59;;;;;;;35.43;14.40;;;-4.20;99.90;;;;;;4992093;28;20944;-56
2021/01/16 01:43:26;;;;;;;34.80;15.57;;;-4.10;99.90;;;;;;4992139;28;20454;-55
2021/01/16 01:45:53;;;;;;;31.37;13.20;;;-4.10;99.90;;;;;;4991319;28;20998;-56
2021/01/16 01:48:20;;;;;;;38.83;15.47;;;-4.10;99.90;;;;;;4992200;28;20482;-56
2021/01/16 01:50:47;;;;;;;37.23;14.60;;;-4.10;99.90;;;;;;4991539;28;20451;-56
2021/01/16 01:53:16;;;;;;;39.27;14.83;;;-4.00;99.90;;;;;;4991878;28;20454;-56
2021/01/16 01:55:45;;;;;;;32.17;13.50;;;-4.10;99.90;;;;;;4991404;28;20474;-56
2021/01/16 01:58:15;;;;;;;32.93;13.63;;;-4.20;99.90;;;;;;4991802;28;20597;-55
2021/01/16 02:00:42;;;;;;;31.63;13.60;;;-4.10;99.90;;;;;;4991762;28;20481;-56
2021/01/16 02:03:15;;;;;;;31.90;12.90;;;-4.00;99.90;;;;;;4991759;28;20995;-55
2021/01/16 02:05:42;;;;;;;30.40;12.93;;;-3.90;99.90;;;;;;4991467;28;20895;-57
2021/01/16 02:08:09;;;;;;;34.20;13.90;;;-3.80;99.90;;;;;;4991334;28;20492;-55
2021/01/16 02:10:35;;;;;;;31.47;13.17;;;-3.70;99.90;;;;;;4991137;28;20504;-56
2021/01/16 02:13:02;;;;;;;34.27;14.40;;;-3.70;99.90;;;;;;4991583;28;20462;-55
2021/01/16 02:15:34;;;;;;;34.70;14.60;;;-3.70;99.90;;;;;;4991477;28;20482;-56
2021/01/16 02:18:05;;;;;;;34.83;15.50;;;-3.70;99.90;;;;;;4991439;28;20451;-56
2021/01/16 02:20:36;;;;;;;37.03;15.77;;;-3.70;99.90;;;;;;4991295;28;20517;-55
2021/01/16 02:23:24;;;;;;;38.23;16.33;;;-3.90;99.90;;;;;;4991138;28;20844;-56
2021/01/16 02:26:14;;;;;;;41.10;15.67;;;-3.90;99.90;;;;;;4991068;28;20995;-56
2021/01/16 02:28:49;;;;;;;31.83;14.60;;;-3.90;99.90;;;;;;4957817;28;20482;-56
2021/01/16 02:31:17;;;;;;;29.83;13.00;;;-4.10;99.90;;;;;;4990867;28;20453;-55
2021/01/16 02:33:46;;;;;;;35.43;14.87;;;-4.00;99.90;;;;;;4991037;28;20453;-55
2021/01/16 02:36:21;;;;;;;30.17;13.73;;;-4.10;99.90;;;;;;4991241;28;21003;-55
2021/01/16 02:39:00;;;;;;;32.77;13.80;;;-4.20;99.90;;;;;;4990767;28;20450;-56
2021/01/16 02:41:35;;;;;;;32.43;13.60;;;-4.20;99.90;;;;;;4991452;28;20453;-55
2021/01/16 02:44:16;;;;;;;31.63;13.87;;;-4.20;99.90;;;;;;4991230;28;20545;-56
2021/01/16 02:46:48;;;;;;;35.53;14.70;;;-4.10;99.90;;;;;;4990957;28;20960;-56
2021/01/16 02:49:27;;;;;;;37.17;14.70;;;-4.10;99.90;;;;;;4990921;28;20991;-55
2021/01/16 02:52:06;;;;;;;30.07;12.47;;;-4.30;99.90;;;;;;4990878;28;20537;-56
2021/01/16 02:54:36;;;;;;;32.20;12.93;;;-4.20;99.90;;;;;;4991023;28;20540;-55
2021/01/16 02:59:37;;;;;;;29.33;13.20;;;-4.00;99.90;;;;;;5073186;22;20582;-50
2021/01/16 03:02:08;;;;;;;29.57;12.60;;;-4.00;99.90;;;;;;5053887;28;20447;-50
2021/01/16 03:04:35;;;;;;;28.47;11.13;;;-4.00;99.90;;;;;;5054586;28;20438;-50
2021/01/16 03:07:03;;;;;;;31.63;13.20;;;-3.90;99.90;;;;;;5054360;28;20446;-51
2021/01/16 03:09:30;;;;;;;25.20;12.37;;;-3.90;99.90;;;;;;5053877;28;20483;-50
2021/01/16 03:11:57;;;;;;;34.13;13.13;;;-4.00;99.90;;;;;;5053750;28;20521;-50
2021/01/16 03:14:26;;;;;;;27.10;11.67;;;-3.80;99.90;;;;;;5054060;28;20992;-51
2021/01/16 03:17:05;;;;;;;28.77;13.13;;;-3.70;99.90;;;;;;5053431;28;21170;-50
2021/01/16 03:19:33;;;;;;;27.17;12.60;;;-3.70;99.90;;;;;;5053526;28;20988;-50
2021/01/16 03:22:00;;;;;;;27.83;12.63;;;-3.80;99.90;;;;;;5054089;28;20452;-50
2021/01/16 03:24:26;;;;;;;30.57;12.40;;;-3.80;99.90;;;;;;5053873;28;20508;-50
2021/01/16 03:26:53;;;;;;;32.70;13.00;;;-3.80;99.90;;;;;;5053763;28;20453;-50
2021/01/16 03:29:19;;;;;;;31.50;12.30;;;-3.90;99.90;;;;;;5053364;28;20486;-50
2021/01/16 03:31:46;;;;;;;22.87;10.27;;;-3.90;99.90;;;;;;5053373;28;20454;-50
2021/01/16 03:34:13;;;;;;;25.53;11.90;;;-3.80;99.90;;;;;;5053614;28;20451;-50
2021/01/16 03:36:40;;;;;;;25.77;11.30;;;-4.00;99.90;;;;;;5053483;28;20456;-50
2021/01/16 03:39:07;;;;;;;24.63;10.93;;;-4.00;99.90;;;;;;5053040;28;20475;-50
2021/01/16 03:41:34;;;;;;;28.50;10.80;;;-4.00;99.90;;;;;;5033859;28;20478;-50
2021/01/16 03:44:00;;;;;;;26.17;11.27;;;-3.90;99.90;;;;;;5040195;28;20468;-50
2021/01/16 03:46:27;;;;;;;28.23;11.60;;;-3.80;99.90;;;;;;5053261;28;20455;-50
2021/01/16 03:48:53;;;;;;;28.10;10.67;;;-3.80;99.90;;;;;;5053228;28;20487;-50
2021/01/16 03:51:21;;;;;;;24.27;11.27;;;-3.80;99.90;;;;;;5053861;28;20447;-50
2021/01/16 03:53:48;;;;;;;29.73;12.10;;;-3.80;99.90;;;;;;5052736;28;20462;-50
2021/01/16 03:56:14;;;;;;;27.60;11.50;;;-3.80;99.90;;;;;;5053345;28;20531;-50
2021/01/16 03:58:41;;;;;;;26.23;11.20;;;-3.70;99.90;;;;;;5053025;28;20550;-51
2021/01/16 04:01:07;;;;;;;24.83;10.67;;;-3.70;99.90;;;;;;5052901;28;20502;-50
2021/01/16 04:03:34;;;;;;;30.60;12.00;;;-3.80;99.90;;;;;;5053005;28;20448;-50
2021/01/16 04:06:00;;;;;;;29.47;11.93;;;-3.70;99.90;;;;;;5053141;28;20436;-50
2021/01/16 04:08:28;;;;;;;23.00;10.00;;;-3.80;99.90;;;;;;5051821;28;20535;-50
2021/01/16 04:10:54;;;;;;;26.33;10.97;;;-3.70;99.90;;;;;;5052186;28;20450;-50
2021/01/16 04:13:21;;;;;;;23.93;10.93;;;-3.70;99.90;;;;;;5053014;28;20455;-51
2021/01/16 04:15:47;;;;;;;31.87;11.83;;;-3.60;99.90;;;;;;5052707;28;20456;-49
2021/01/16 04:18:14;;;;;;;24.17;10.23;;;-3.60;99.90;;;;;;5052794;28;20459;-49
2021/01/16 04:20:40;;;;;;;28.27;11.67;;;-3.70;99.90;;;;;;5052726;28;20443;-49
2021/01/16 04:23:07;;;;;;;25.20;10.20;;;-3.60;99.90;;;;;;5052787;28;20828;-49
2021/01/16 04:25:34;;;;;;;25.80;11.47;;;-3.70;99.90;;;;;;5053051;28;20506;-49
2021/01/16 04:28:01;;;;;;;27.97;11.43;;;-3.60;99.90;;;;;;5052874;28;20472;-49
2021/01/16 04:30:27;;;;;;;31.13;12.97;;;-3.60;99.90;;;;;;5051528;28;20971;-49
2021/01/16 04:32:54;;;;;;;32.77;13.00;;;-3.60;99.90;;;;;;5052855;28;20448;-48
2021/01/16 04:35:20;;;;;;;28.53;12.60;;;-3.60;99.90;;;;;;5052546;28;20448;-51
2021/01/16 04:37:47;;;;;;;31.67;11.10;;;-3.50;99.90;;;;;;5052750;28;20976;-50
2021/01/16 04:40:14;;;;;;;32.50;11.63;;;-3.80;99.90;;;;;;5052544;28;20454;-49
2021/01/16 04:42:43;;;;;;;33.50;11.80;;;-3.80;99.90;;;;;;5052945;28;20443;-49
2021/01/16 04:45:14;;;;;;;27.17;11.07;;;-3.80;99.90;;;;;;5052447;28;20535;-49
2021/01/16 04:47:43;;;;;;;25.90;10.80;;;-3.60;99.90;;;;;;5051957;28;21064;-49
2021/01/16 04:50:13;;;;;;;24.70;10.27;;;-3.50;99.90;;;;;;5051885;28;20647;-49
2021/01/16 04:52:41;;;;;;;29.10;12.97;;;-3.60;99.90;;;;;;5052726;28;20442;-50
2021/01/16 04:55:09;;;;;;;30.97;12.23;;;-3.80;99.90;;;;;;5052253;28;20459;-49
2021/01/16 04:57:37;;;;;;;33.03;13.50;;;-3.70;99.90;;;;;;5052015;28;20577;-49
2021/01/16 05:00:08;;;;;;;34.00;13.97;;;-3.70;99.90;;;;;;5051828;28;20578;-50
2021/01/16 05:02:38;;;;;;;34.97;14.30;;;-3.70;99.90;;;;;;5052062;28;21172;-50
2021/01/16 05:05:07;;;;;;;36.87;14.03;;;-3.60;99.90;;;;;;5051749;28;20879;-51
2021/01/16 05:07:33;;;;;;;34.23;13.27;;;-3.60;99.90;;;;;;5051941;28;20547;-50
2021/01/16 05:10:01;;;;;;;40.03;15.33;;;-3.60;99.90;;;;;;5051799;28;20566;-50
2021/01/16 05:12:46;;;;;;;38.87;15.60;;;-3.50;99.90;;;;;;5051866;28;20448;-51
2021/01/16 05:15:20;;;;;;;37.87;15.87;;;-3.50;99.90;;;;;;5051441;28;20463;-50
2021/01/16 05:17:52;;;;;;;40.97;16.27;;;-3.60;99.90;;;;;;5052168;28;20471;-51
2021/01/16 05:20:20;;;;;;;47.20;16.80;;;-3.60;99.90;;;;;;5051617;28;20501;-51
2021/01/16 05:22:46;;;;;;;47.50;18.90;;;-3.50;99.90;;;;;;5051777;28;20451;-51
2021/01/16 05:25:13;;;;;;;47.47;17.80;;;-3.40;99.90;;;;;;5051622;28;20451;-51
2021/01/16 05:27:47;;;;;;;36.43;15.93;;;-3.50;99.90;;;;;;5051517;28;20549;-51
2021/01/16 05:30:14;;;;;;;43.20;15.70;;;-3.60;99.90;;;;;;5051220;28;20491;-51
2021/01/16 05:32:42;;;;;;;38.30;15.47;;;-3.60;99.90;;;;;;5051617;28;20835;-51
2021/01/16 05:35:15;;;;;;;44.23;17.93;;;-3.50;99.90;;;;;;5051537;28;20448;-51
2021/01/16 05:37:45;;;;;;;42.10;16.53;;;-3.70;99.90;;;;;;5051367;28;20833;-51
2021/01/16 05:40:12;;;;;;;48.70;16.80;;;-3.70;99.90;;;;;;5051081;28;20455;-51
2021/01/16 05:42:39;;;;;;;44.83;17.17;;;-3.60;99.90;;;;;;5051504;28;20451;-51
2021/01/16 05:45:08;;;;;;;43.50;16.73;;;-3.50;99.90;;;;;;5050880;28;20509;-50
2021/01/16 05:47:36;;;;;;;44.20;17.07;;;-3.50;99.90;;;;;;5051070;28;20468;-50
2021/01/16 05:50:05;;;;;;;47.23;18.57;;;-3.50;99.90;;;;;;5050954;28;20479;-51
2021/01/16 05:52:32;;;;;;;47.97;19.70;;;-3.50;99.90;;;;;;5051266;28;20458;-51
2021/01/16 05:55:00;;;;;;;47.00;18.07;;;-3.40;99.90;;;;;;5050892;28;20444;-51
2021/01/16 05:57:27;;;;;;;52.57;19.77;;;-3.50;99.90;;;;;;5050918;28;20463;-51
2021/01/16 06:00:00;;;;;;;47.13;18.20;;;-3.40;99.90;;;;;;5050600;28;20447;-50
2021/01/16 06:02:30;;;;;;;49.30;19.13;;;-3.40;99.90;;;;;;5050987;28;21089;-51
2021/01/16 06:04:57;;;;;;;42.77;17.40;;;-3.30;99.90;;;;;;5050930;28;20534;-51
2021/01/16 06:07:26;;;;;;;45.13;17.70;;;-3.30;99.90;;;;;;5051068;28;20451;-51
2021/01/16 06:09:54;;;;;;;48.10;18.97;;;-3.30;99.90;;;;;;5050820;28;20487;-51
2021/01/16 06:12:22;;;;;;;47.70;19.50;;;-3.40;99.90;;;;;;5051018;28;20472;-51
2021/01/16 06:14:49;;;;;;;45.70;18.10;;;-3.50;99.90;;;;;;5050795;28;20455;-51
2021/01/16 06:17:17;;;;;;;47.37;18.10;;;-3.50;99.90;;;;;;5050222;28;20521;-50
2021/01/16 06:19:47;;;;;;;47.07;18.50;;;-3.50;99.90;;;;;;5050378;28;20455;-50
2021/01/16 06:22:15;;;;;;;48.60;18.13;;;-3.40;99.90;;;;;;5050824;28;20505;-50
2021/01/16 06:24:47;;;;;;;56.17;18.93;;;-3.50;99.90;;;;;;5050953;28;21258;-51
2021/01/16 06:27:22;;;;;;;46.67;18.80;;;-3.50;99.90;;;;;;5050272;28;20451;-50
2021/01/16 06:29:57;;;;;;;45.10;18.90;;;-3.50;99.90;;;;;;5049082;28;20938;-51
2021/01/16 06:32:24;;;;;;;51.10;19.67;;;-3.60;99.90;;;;;;5049833;28;20944;-50
2021/01/16 06:35:05;;;;;;;40.10;17.47;;;-3.60;99.90;;;;;;5050761;28;20454;-50
2021/01/16 06:37:32;;;;;;;45.13;18.03;;;-3.30;99.90;;;;;;5050351;28;20472;-51
2021/01/16 06:40:00;;;;;;;46.63;16.73;;;-3.30;99.90;;;;;;5050424;28;20451;-50
2021/01/16 06:42:31;;;;;;;44.20;17.43;;;-3.10;99.90;;;;;;5050711;28;20807;-51
2021/01/16 06:45:08;;;;;;;48.03;17.73;;;-3.40;99.90;;;;;;5050769;28;20448;-51
2021/01/16 06:47:36;;;;;;;45.00;17.30;;;-3.50;99.90;;;;;;5050527;28;20481;-51
2021/01/16 06:50:06;;;;;;;43.13;16.87;;;-3.50;99.90;;;;;;5030677;28;20491;-51
2021/01/16 06:52:37;;;;;;;52.20;18.00;;;-3.50;99.90;;;;;;5034425;28;20452;-51
2021/01/16 06:55:06;;;;;;;47.40;16.90;;;-3.30;99.90;;;;;;5046277;28;20532;-50
2021/01/16 06:57:33;;;;;;;42.70;15.70;;;-3.60;99.90;;;;;;5050940;28;20468;-51
2021/01/16 07:00:06;;;;;;;42.27;15.90;;;-3.70;99.90;;;;;;5049922;28;20493;-50
2021/01/16 07:02:34;;;;;;;38.47;15.03;;;-3.80;99.90;;;;;;5054654;28;21028;-50
2021/01/16 07:05:03;;;;;;;44.83;17.17;;;-3.70;99.90;;;;;;5054849;28;20451;-50
2021/01/16 07:07:34;;;;;;;45.30;16.50;;;-4.00;99.90;;;;;;5053671;28;20589;-50
2021/01/16 07:10:03;;;;;;;38.93;17.13;;;-4.20;99.90;;;;;;5054033;28;20479;-51
2021/01/16 07:12:31;;;;;;;46.07;18.07;;;-4.40;99.90;;;;;;5053565;28;20447;-50
2021/01/16 07:14:58;;;;;;;42.90;18.07;;;-4.30;99.90;;;;;;5054026;28;20448;-49
2021/01/16 07:17:26;;;;;;;44.50;18.10;;;-4.50;99.90;;;;;;5054296;28;20453;-50
2021/01/16 07:19:55;;;;;;;46.00;17.27;;;-4.60;99.90;;;;;;5053964;28;21010;-50
2021/01/16 07:22:26;;;;;;;43.30;17.40;;;-4.70;99.90;;;;;;5054143;28;20459;-50
2021/01/16 07:24:54;;;;;;;43.53;16.80;;;-4.70;99.90;;;;;;5053994;28;20507;-50
2021/01/16 07:27:21;;;;;;;48.40;17.60;;;-4.90;99.90;;;;;;5054021;28;20955;-50
2021/01/16 07:29:49;;;;;;;49.70;16.77;;;-5.10;99.90;;;;;;5053994;28;20566;-50
2021/01/16 07:32:17;;;;;;;43.27;15.90;;;-5.10;99.90;;;;;;5053530;28;20447;-50
2021/01/16 07:34:45;;;;;;;44.10;16.10;;;-5.10;99.90;;;;;;5053910;28;20455;-50
2021/01/16 07:37:13;;;;;;;49.60;16.80;;;-5.20;99.90;;;;;;5053942;28;20454;-50
2021/01/16 07:39:43;;;;;;;43.50;16.90;;;-5.30;99.90;;;;;;5053684;28;20478;-51
2021/01/16 07:42:12;;;;;;;39.00;15.83;;;-5.60;99.90;;;;;;5052746;28;20535;-50
2021/01/16 07:44:46;;;;;;;45.63;16.20;;;-5.70;99.90;;;;;;5049734;28;20885;-50
2021/01/16 07:47:21;;;;;;;43.63;17.03;;;-5.60;99.90;;;;;;5057166;28;20482;-51
2021/01/16 07:49:54;;;;;;;47.67;17.57;;;-5.60;99.90;;;;;;5052747;28;20595;-50
2021/01/16 07:52:26;;;;;;;41.30;16.77;;;-5.50;99.90;;;;;;5053390;28;20447;-50
2021/01/16 07:55:06;;;;;;;40.73;17.67;;;-5.20;99.90;;;;;;5042494;28;20517;-50
2021/01/16 07:57:33;;;;;;;38.17;16.30;;;-5.30;99.90;;;;;;5034475;28;20471;-50
2021/01/16 08:00:06;;;;;;;35.63;14.13;;;-5.30;99.90;;;;;;5033678;28;20872;-50
2021/01/16 08:02:44;;;;;;;41.47;15.57;;;-5.20;99.90;;;;;;5048896;28;20447;-50
2021/01/16 08:05:26;;;;;;;37.60;15.10;;;-5.30;99.90;;;;;;5053497;28;20449;-50
2021/01/16 08:08:23;;;;;;;33.60;14.63;;;-5.20;99.90;;;;;;5038364;28;20490;-50
2021/01/16 08:10:54;;;;;;;44.20;16.27;;;-5.00;99.90;;;;;;5032927;28;20511;-50
2021/01/16 08:13:23;;;;;;;42.40;15.57;;;-4.80;99.90;;;;;;5044517;28;20964;-49
2021/01/16 08:15:50;;;;;;;42.37;14.47;;;-5.00;99.90;;;;;;5051498;28;20479;-50
2021/01/16 08:18:22;;;;;;;37.30;15.13;;;-5.00;99.90;;;;;;5040074;28;20505;-49
2021/01/16 08:20:50;;;;;;;39.37;14.53;;;-4.90;99.90;;;;;;5044073;28;20896;-50
2021/01/16 08:23:26;;;;;;;38.83;15.00;;;-4.90;99.90;;;;;;5052275;28;20485;-48
2021/01/16 08:25:53;;;;;;;35.73;14.43;;;-4.60;99.90;;;;;;5035218;28;20444;-50
2021/01/16 08:28:26;;;;;;;36.50;12.77;;;-4.60;99.90;;;;;;5046884;28;20848;-50
2021/01/16 08:30:52;;;;;;;33.77;12.90;;;-4.70;99.90;;;;;;5051819;28;20461;-50
2021/01/16 08:33:32;;;;;;;33.93;13.60;;;-4.40;99.90;;;;;;5046441;28;20472;-51
2021/01/16 08:36:13;;;;;;;35.40;12.63;;;-4.30;99.90;;;;;;5051030;28;20554;-50
2021/01/16 08:38:40;;;;;;;31.50;11.33;;;-4.20;99.90;;;;;;5052280;28;20501;-49
2021/01/16 08:41:07;;;;;;;35.57;13.80;;;-4.00;99.90;;;;;;5051986;28;20543;-50
2021/01/16 08:43:36;;;;;;;22.70;10.23;;;-3.90;99.90;;;;;;5052427;28;20892;-50
2021/01/16 08:46:10;;;;;;;28.97;10.90;;;-3.60;99.90;;;;;;5052168;28;20451;-49
2021/01/16 08:48:38;;;;;;;30.83;12.57;;;-3.70;99.90;;;;;;5051520;28;20488;-49
2021/01/16 08:51:26;;;;;;;31.17;12.33;;;-3.90;99.90;;;;;;5050468;28;20531;-49
2021/01/16 08:54:06;;;;;;;30.93;12.90;;;-3.90;99.90;;;;;;5052278;28;20497;-50
2021/01/16 08:56:32;;;;;;;28.40;12.40;;;-3.40;99.90;;;;;;5051189;28;20460;-50
2021/01/16 08:59:15;;;;;;;26.47;11.87;;;-3.30;99.90;;;;;;5049316;28;20483;-49
2021/01/16 09:01:42;;;;;;;30.03;12.20;;;-2.90;99.90;;;;;;5038602;28;20448;-50
2021/01/16 09:04:20;;;;;;;31.20;13.03;;;-2.60;99.90;;;;;;5051411;28;20456;-49
2021/01/16 09:06:48;;;;;;;27.30;11.87;;;-2.40;99.90;;;;;;5045682;28;20475;-49
2021/01/16 09:09:24;;;;;;;26.30;12.27;;;-2.10;99.90;;;;;;5050632;28;20510;-50
2021/01/16 09:12:09;;;;;;;23.43;11.07;;;-2.00;99.90;;;;;;5051894;28;20597;-49
2021/01/16 09:14:36;;;;;;;30.83;13.37;;;-1.70;99.90;;;;;;5044135;28;20948;-50
2021/01/16 09:17:20;;;;;;;26.10;12.33;;;-1.70;99.90;;;;;;5051817;28;20449;-49
2021/01/16 09:19:55;;;;;;;27.07;11.80;;;-1.30;99.90;;;;;;5050492;28;20479;-50
2021/01/16 09:22:24;;;;;;;26.17;11.40;;;-1.00;99.90;;;;;;5051089;28;20455;-50
2021/01/16 09:24:50;;;;;;;24.63;11.90;;;-0.90;99.90;;;;;;5050929;28;20477;-49
2021/01/16 09:27:29;;;;;;;26.87;12.37;;;-0.70;99.90;;;;;;5051330;28;20486;-49
2021/01/16 09:29:56;;;;;;;29.73;13.30;;;-0.50;99.90;;;;;;5050857;28;20474;-49
2021/01/16 09:32:32;;;;;;;29.67;13.50;;;0.10;99.90;;;;;;5051482;28;20446;-50
2021/01/16 09:35:00;;;;;;;26.90;13.97;;;0.60;99.90;;;;;;5051211;28;20461;-50
2021/01/16 09:37:29;;;;;;;26.53;12.83;;;1.40;99.90;;;;;;5051273;28;20461;-50
2021/01/16 09:40:12;;;;;;;26.03;12.93;;;2.10;99.90;;;;;;5050711;28;20470;-50
2021/01/16 09:42:44;;;;;;;29.03;14.53;;;2.80;99.90;;;;;;5050705;28;20477;-50
2021/01/16 09:45:11;;;;;;;23.67;13.60;;;2.70;99.90;;;;;;5048162;28;20518;-50
2021/01/16 09:47:53;;;;;;;26.30;13.27;;;3.60;99.90;;;;;;5051132;28;20988;-50
2021/01/16 09:50:28;;;;;;;23.77;11.90;;;4.20;99.90;;;;;;5050670;28;20486;-50
2021/01/16 09:52:57;;;;;;;28.20;13.67;;;4.60;99.90;;;;;;5051108;28;20486;-50
2021/01/16 09:55:32;;;;;;;28.37;13.77;;;4.50;99.90;;;;;;5051448;28;20506;-50
2021/01/16 09:57:59;;;;;;;27.70;13.90;;;3.80;99.90;;;;;;5050239;28;20485;-50
2021/01/16 10:00:28;;;;;;;30.83;12.20;;;3.80;99.90;;;;;;5050803;28;20534;-50
2021/01/16 10:03:00;;;;;;;26.23;13.03;;;3.40;99.90;;;;;;5050900;28;20821;-49
2021/01/16 10:05:31;;;;;;;24.40;12.40;;;3.00;99.90;;;;;;5049985;28;20975;-48
2021/01/16 10:07:58;;;;;;;27.67;13.10;;;2.50;99.90;;;;;;5050068;28;20914;-49
2021/01/16 10:10:25;;;;;;;27.60;13.43;;;1.90;99.90;;;;;;5050036;28;20486;-49
2021/01/16 10:13:01;;;;;;;22.80;12.33;;;1.40;99.90;;;;;;5049594;28;20520;-49
2021/01/16 10:15:33;;;;;;;21.10;11.70;;;1.10;99.90;;;;;;5050814;28;20850;-48
2021/01/16 10:18:00;;;;;;;23.10;11.40;;;1.00;99.90;;;;;;5050640;28;20471;-49
2021/01/16 10:20:36;;;;;;;20.88;12.52;;;0.90;99.90;;;;;;5048486;28;20470;-50
2021/01/16 10:23:08;;;;;;;21.87;10.33;;;1.00;99.90;;;;;;5046990;28;20450;-49
2021/01/16 10:25:40;;;;;;;24.40;11.37;;;1.00;99.90;;;;;;5048693;28;20908;-49
2021/01/16 10:28:10;;;;;;;18.60;9.63;;;0.90;99.90;;;;;;5050041;28;20538;-49
2021/01/16 10:30:49;;;;;;;20.17;8.70;;;1.20;99.90;;;;;;5049158;28;20489;-49
2021/01/16 10:33:20;;;;;;;16.97;8.53;;;1.40;99.90;;;;;;5032619;28;20446;-49
2021/01/16 10:35:51;;;;;;;18.67;9.13;;;1.30;99.90;;;;;;5049620;28;20538;-50
2021/01/16 10:38:47;;;;;;;17.57;8.23;;;1.50;99.90;;;;;;5050007;28;20550;-50
2021/01/16 10:41:15;;;;;;;16.73;8.63;;;1.50;99.90;;;;;;5050008;28;20453;-49
2021/01/16 10:43:42;;;;;;;17.20;7.70;;;1.50;99.90;;;;;;5049390;28;20470;-49
2021/01/16 10:46:22;;;;;;;12.63;7.40;;;1.70;99.90;;;;;;5050112;28;20451;-50
2021/01/16 10:48:49;;;;;;;15.27;8.47;;;2.00;99.90;;;;;;5049492;28;20485;-49
2021/01/16 10:51:24;;;;;;;17.87;8.37;;;2.10;99.90;;;;;;5046952;28;20502;-49
2021/01/16 10:53:57;;;;;;;16.93;8.23;;;2.20;99.90;;;;;;5050057;28;20888;-49
2021/01/16 10:56:27;;;;;;;21.93;8.50;;;2.10;99.90;;;;;;5046556;28;20467;-49
2021/01/16 10:59:12;;;;;;;14.50;8.10;;;2.20;99.90;;;;;;5034149;28;20534;-49
2021/01/16 11:01:48;;;;;;;15.07;7.93;;;2.30;99.90;;;;;;5045032;28;21053;-50
2021/01/16 11:04:19;;;;;;;14.43;7.47;;;2.30;99.90;;;;;;5044775;28;20560;-50
2021/01/16 11:06:50;;;;;;;18.10;8.23;;;2.50;99.90;;;;;;5041563;28;20466;-49
2021/01/16 11:09:53;;;;;;;16.03;8.70;;;2.70;99.90;;;;;;5037051;28;20902;-49
2021/01/16 11:12:26;;;;;;;16.30;9.97;;;2.90;99.90;;;;;;5039051;28;20494;-49
2021/01/16 11:14:53;;;;;;;18.60;9.13;;;2.60;99.90;;;;;;5038561;28;20478;-50
2021/01/16 11:17:20;;;;;;;17.80;9.23;;;3.10;99.90;;;;;;5038118;28;20471;-49
2021/01/16 11:19:54;;;;;;;16.17;8.77;;;3.50;99.90;;;;;;5045668;28;20455;-49
2021/01/16 11:22:34;;;;;;;18.07;9.60;;;3.90;99.90;;;;;;5052275;28;20571;-49
2021/01/16 11:25:12;;;;;;;20.23;10.00;;;4.20;99.90;;;;;;5045128;28;20470;-50
2021/01/16 11:28:04;;;;;;;19.17;9.10;;;4.40;99.90;;;;;;5048383;28;20478;-50
2021/01/16 11:30:38;;;;;;;14.17;7.80;;;4.20;99.90;;;;;;5052804;28;20505;-50
2021/01/16 11:33:13;;;;;;;14.70;7.93;;;3.90;99.90;;;;;;5050691;28;20509;-50
2021/01/16 11:35:41;;;;;;;13.10;7.60;;;3.70;99.90;;;;;;5049608;28;20461;-50
2021/01/16 11:38:38;;;;;;;15.90;8.57;;;3.50;99.90;;;;;;5051445;28;20484;-50
2021/01/16 11:41:05;;;;;;;17.30;9.23;;;3.10;99.90;;;;;;5051310;28;20470;-50
2021/01/16 11:43:31;;;;;;;15.93;8.43;;;2.70;99.90;;;;;;5053216;28;20446;-50
2021/01/16 11:46:09;;;;;;;16.73;9.20;;;2.80;99.90;;;;;;5050117;28;21161;-50
2021/01/16 11:48:36;;;;;;;19.93;9.37;;;3.10;99.90;;;;;;5045461;28;21019;-50
2021/01/16 11:51:14;;;;;;;16.93;8.90;;;3.20;99.90;;;;;;5045795;28;20961;-51
2021/01/16 11:53:45;;;;;;;15.83;8.50;;;3.10;99.90;;;;;;5044995;28;20463;-50
2021/01/16 11:56:15;;;;;;;17.20;8.70;;;2.90;99.90;;;;;;5039693;28;20473;-51
2021/01/16 11:58:44;;;;;;;17.60;9.37;;;3.10;99.90;;;;;;5041829;28;20858;-50
2021/01/16 12:01:13;;;;;;;20.03;10.20;;;3.10;99.90;;;;;;5031648;28;20471;-50
2021/01/16 12:03:41;;;;;;;18.83;9.97;;;2.80;99.90;;;;;;5044032;28;20509;-51
2021/01/16 12:06:15;;;;;;;23.23;11.23;;;2.80;99.90;;;;;;5038292;28;20501;-51
2021/01/16 12:08:47;;;;;;;19.60;10.07;;;2.70;99.90;;;;;;5052682;28;20513;-50
2021/01/16 12:11:15;;;;;;;18.43;10.07;;;2.40;99.90;;;;;;5053020;28;20448;-50
2021/01/16 12:13:43;;;;;;;17.83;10.03;;;2.20;99.90;;;;;;5052574;28;20455;-50
2021/01/16 12:16:12;;;;;;;25.37;11.70;;;2.20;99.90;;;;;;5052643;28;20450;-50
2021/01/16 12:18:40;;;;;;;20.87;10.20;;;2.10;99.90;;;;;;5052283;28;20560;-50
2021/01/16 12:21:09;;;;;;;21.07;10.37;;;2.20;99.90;;;;;;5052763;28;20509;-50
2021/01/16 12:23:40;;;;;;;20.87;10.80;;;2.10;99.90;;;;;;5052693;28;20516;-50
2021/01/16 12:26:11;;;;;;;21.30;10.43;;;1.90;99.90;;;;;;5052079;28;20960;-50
2021/01/16 12:28:45;;;;;;;22.97;11.20;;;1.80;99.90;;;;;;5051855;28;20514;-50
2021/01/16 12:31:19;;;;;;;19.07;10.20;;;1.60;99.90;;;;;;5051057;28;20451;-50
2021/01/16 12:33:45;;;;;;;18.03;10.00;;;1.00;99.90;;;;;;5052453;28;20443;-50
2021/01/16 12:36:12;;;;;;;25.10;12.40;;;1.40;99.90;;;;;;5044259;28;20998;-50
2021/01/16 12:38:39;;;;;;;18.50;9.30;;;1.60;99.90;;;;;;5050016;28;20471;-50
2021/01/16 12:41:06;;;;;;;21.00;9.70;;;1.60;99.90;;;;;;5051868;28;20576;-50
2021/01/16 12:43:33;;;;;;;18.07;9.13;;;1.70;99.90;;;;;;5051585;28;20512;-50
2021/01/16 12:46:05;;;;;;;16.10;9.70;;;1.70;99.90;;;;;;5052310;28;20443;-50
2021/01/16 12:48:33;;;;;;;20.37;9.97;;;1.70;99.90;;;;;;5051869;28;20464;-50